Onweer van: 18-10-2019 10:00 tot: 13:00 waarschuwing voor: Onweer niveau: Geel info button
Enkele onweersbuien met kans op windstoten van 60-70 km/uur, langs de kust rond 80 km/uur, en mogelijk ook hagel.Kans op blikseminslag, hagel en windstoten.Verkeer en buitenactiviteiten kunnen hinder ondervinden.Mijd open water en open gebied, schuil niet onder bomen.Volg weerberichten en waarschuwingen.


waarschuwing voor Onweer Meer informatie blitzortung!



METAR rapporten vliegvelden

   
EBAW - Antwerp
Gewijzigd: 18-10-2019 01:50
Helder  
Helder  
   Wind: Zuiden 9.3 km/h
Wind: Zuiden 9.3 km/h
Temperatuur: 13°C
Dauwpunt: 12°C
Vochtigheid: 94%
Barometer: 1007 hPa
Zicht: meer dan 10 km
Bewolking: Helder
EBAW 172350Z AUTO 18005KT CAVOK 13/12 Q1007
EBLG - Li├Ęge
Gewijzigd: 18-10-2019 01:50
Helder  
Helder  
   Wind: Zuiden 20.4 km/h
Wind: Zuiden 20.4 km/h
Temperatuur: 12°C
Dauwpunt: 10°C
Vochtigheid: 88%
Barometer: 1009 hPa
Zicht: meer dan 10 km
Bewolking: Helder
EBLG 172350Z 19011KT CAVOK 12/10 Q1009 NOSIG
EBCV - Mons/Bergen
Gewijzigd: 18-10-2019 01:55
Grotendeels bewolkt  
Grotendeels bewolkt  
   Wind: Zuiden 14.8 km/h
Wind: Zuiden 14.8 km/h
Temperatuur: 14°C
Dauwpunt: 12°C
Vochtigheid: 88%
Barometer: 1007 hPa
Bewolking: Grotendeels bewolkt
Zicht: meer dan 10 km
Bewolking: Licht bewolkt 1200 ft,
Grotendeels bewolkt 2300 ft
EBCV 172355Z AUTO 19008KT 9999 FEW012/// BKN023/// 14/12 Q1007 WHT
EHBK - Maastricht
Gewijzigd: 18-10-2019 01:55
Gedeeltelijk bewolkt  
Gedeeltelijk bewolkt  
   Wind: Zuiden 14.8 km/h
Wind: Zuiden 14.8 km/h
Temperatuur: 12°C
Dauwpunt: 11°C
Vochtigheid: 94%
Barometer: 1009 hPa
Bewolking: Gedeeltelijk bewolkt
Zicht: meer dan 10 km
Bewolking: Gedeeltelijk bewolkt
EHBK 172355Z AUTO 18008KT 9999 NSC 12/11 Q1009
ELLX - Luxemburg
Gewijzigd: 18-10-2019 01:50
Grotendeels bewolkt  
Grotendeels bewolkt  
   Wind: Zuiden 14.8 km/h
Wind: Zuiden 14.8 km/h
Temperatuur: 12°C
Dauwpunt: 12°C
Vochtigheid: 100%
Barometer: 1012 hPa
Bewolking: Grotendeels bewolkt
Zicht: meer dan 10 km
Bewolking: Licht bewolkt 200 ft,
Grotendeels bewolkt 300 ft
ELLX 172350Z 19008KT 140V230 9999 FEW002 BKN003 12/12 Q1012 NOSIG
EBOS - Oostende
Gewijzigd: 18-10-2019 01:50
Helder  
Helder  
   Wind: Zuiden 14.8 km/h
Wind: Zuiden 14.8 km/h
Temperatuur: 12°C
Dauwpunt: 10°C
Vochtigheid: 88%
Barometer: 1005 hPa
Zicht: meer dan 10 km
Bewolking: Helder
EBOS 172350Z 19008KT CAVOK 12/10 Q1005 NOSIG

Script ontwikkeld door  Saratoga-weather.org Aangepast voor de template door  Weerstation Leuven